EW4210 Weather Reports


Display with metric or nautical units.
time (UTC)temp
F
wind
direction
speed
MPH
gust
MPH
rain 1hr
in
rain 24hr
in
rain mn
in
humidity
%
barometer
mb
20240717221512 82 9 0.0 3.0 0.00 6.73 6.73 80 1013.3
20240717220056 81 360 0.0 2.0 0.00 6.73 6.73 81 1013.1
20240717214531 82 333 0.0 3.0 0.00 6.73 6.73 82 1013.2
20240717213019 81 338 1.0 3.0 0.00 6.73 6.73 84 1013.1
20240717211546 81 287 1.0 3.0 0.00 6.73 6.73 84 1013.0
20240717210026 81 325 1.0 5.0 0.00 6.73 6.73 83 1013.0
20240717204509 81 313 1.0 3.0 0.00 6.73 6.73 84 1013.3
20240717203051 81 301 1.0 3.0 0.00 6.73 6.73 80 1013.3
20240717201526 81 291 0.0 3.0 0.00 6.73 6.73 81 1013.2
20240717200010 80 276 1.0 3.0 0.00 6.73 6.73 81 1013.2
20240717194606 80 266 0.0 5.0 0.00 6.73 6.73 83 1013.4
20240717193031 79 184 0.0 3.0 0.00 6.73 6.73 86 1013.9
20240717191533 78 312 0.0 2.0 0.00 6.73 6.73 87 1014.1
20240717190059 77 290 1.0 5.0 0.00 6.73 6.73 88 1014.4
20240717184533 77 281 1.0 5.0 0.00 6.73 6.73 91 1014.3
20240717183014 76 116 0.0 2.0 0.00 6.73 6.73 92 1014.3
20240717181553 76 257 1.0 2.0 0.00 6.73 6.73 95 1014.4
20240717180031 75 287 1.0 3.0 0.00 6.73 6.73 95 1014.5
20240717174516 74 183 0.0 2.0 0.00 6.73 6.73 97 1014.6
20240717170029 73 96 0.0 2.0 0.02 6.73 6.73 98 1014.9
20240717164520 72 205 0.0 2.0 0.03 6.73 6.73 98 1014.7
20240717163009 71 325 1.0 4.0 0.04 6.72 6.72 97 1014.2
20240717161552 71 65 2.0 6.0 0.06 6.72 6.72 97 1013.8
20240717160041 71 26 3.0 6.0 0.09 6.71 6.71 97 1014.7
20240717154519 71 22 2.0 5.0 0.16 6.70 6.70 97 1014.7
20240717153019 71 17 1.0 4.0 0.21 6.68 6.69 98 1015.6
20240717151543 71 54 1.0 3.0 0.25 6.66 6.66 98 1016.3
20240717150027 72 36 0.0 2.0 0.31 6.62 6.62 98 1016.9
20240717144515 71 78 0.0 2.0 0.86 6.54 6.54 98 1016.8
20240717143044 71 340 0.0 1.0 0.98 6.47 6.47 97 1016.6
20240717141531 71 333 1.0 3.0 1.71 6.41 6.41 97 1016.3
20240717140005 71 349 2.0 5.0 1.87 6.25 6.29 97 1015.5
20240717134542 72 324 1.0 7.0 1.89 5.68 5.68 97 1015.8
20240717133023 72 313 2.0 5.0 2.29 5.43 5.46 97 1014.8
20240717131507 73 273 1.0 4.0 2.19 4.67 4.67 97 1015.4
20240717130045 73 355 2.0 3.0 2.20 4.38 4.38 97 1014.4
20240717124526 73 140 1.0 3.0 1.61 3.72 3.74 97 1014.3
20240717123018 72 116 0.0 3.0 1.07 3.14 3.14 97 1013.6
20240717121553 72 96 0.0 3.0 0.44 2.50 2.50 97 1013.2
20240717120038 72 322 1.0 4.0 0.17 2.19 2.19 97 1012.8
20240717114523 73 207 1.0 3.0 0.12 2.10 2.11 97 1012.9
20240717113022 72 267 0.0 2.0 0.25 2.06 2.06 98 1012.8
20240717111553 71 26 1.0 7.0 0.35 2.06 2.06 97 1012.7
20240717110034 71 138 2.0 8.0 0.51 2.00 2.00 97 1012.6
20240717104521 71 104 4.0 10.0 0.86 1.98 1.98 97 1012.4
20240717103052 71 152 1.0 11.0 0.71 1.82 1.82 97 1012.5
20240717101544 71 94 1.0 4.0 0.60 1.71 1.71 97 1012.4
20240717100025 71 157 2.0 6.0 0.36 1.46 1.48 96 1012.2
20240717094515 71 333 1.0 3.0 0.03 1.12 1.12 97 1013.0
20240717093050 71 101 0.0 3.0 0.02 1.11 1.11 97 1011.9
20240717091538 71 34 0.0 1.0 0.03 1.11 1.11 97 1012.1
20240717090030 71 34 0.0 1.0 0.02 1.10 1.10 96 1012.0
20240717084512 71 34 0.0 3.0 0.01 1.09 1.09 96 1012.3
20240717083058 71 44 0.0 1.0 0.01 1.09 1.09 96 1011.8
20240717081539 71 95 0.0 1.0 0.01 1.08 1.08 96 1012.1
20240717080018 70 95 0.0 2.0 0.04 1.08 1.08 95 1012.2
20240717074554 71 84 0.0 4.0 0.15 1.08 1.08 95 1012.5
20240717073039 71 103 0.0 3.0 1.06 1.08 1.08 95 1012.8
20240717071528 71 44 0.0 3.0 1.07 1.07 1.07 94 1013.3
20240717070105 72 53 1.0 3.0 1.04 1.04 1.04 94 1013.1
20240717070002 72 49 1.0 3.0 1.03 1.03 1.04 94 1013.1
20240717064556 73 138 4.0 14.0 0.92 0.92 0.93 93 1012.9
20240717063019 73 68 1.0 5.0 0.01 0.01 0.02 95 1013.9
20240717061604 73 5 3.0 8.0 0.00 0.00 0.00 94 1013.8
20240717060101 73 20 4.0 9.0 0.00 0.00 0.00 93 1013.5
20240717054517 74 69 4.0 9.0 0.00 0.00 0.00 87 1013.7
20240717053053 76 32 3.0 6.0 0.00 0.00 0.00 83 1013.9
20240717051531 79 13 2.0 5.0 0.00 0.00 0.00 76 1013.5
20240717050016 80 35 1.0 3.0 0.00 0.00 0.00 74 1012.3
20240717044547 80 98 2.0 7.0 0.00 0.00 0.00 74 1012.1
20240717043035 81 80 1.0 8.0 0.00 0.00 0.00 73 1012.3
20240717041519 82 37 2.0 5.0 0.00 0.00 0.00 74 1012.2
20240717040004 84 101 2.0 6.0 0.00 0.00 0.00 75 1011.7
20240717034549 86 65 1.0 3.0 0.00 0.00 0.00 74 1011.5
20240717033030 86 215 1.0 4.0 0.00 0.00 0.00 73 1011.3
20240717031517 87 115 0.0 6.0 0.00 0.00 0.00 73 1011.2
20240717030053 87 115 0.0 3.0 0.00 0.00 0.00 74 1010.7
20240717024539 87 17 0.0 3.0 0.00 0.00 0.00 73 1011.2
20240717023025 87 288 0.0 4.0 0.00 0.00 0.00 73 1011.1
20240717021520 87 227 0.0 2.0 0.00 0.00 0.00 73 1010.7
20240717020049 88 267 0.0 3.0 0.00 0.00 0.00 73 1010.4
20240717014531 88 206 1.0 3.0 0.00 0.00 0.00 72 1010.5
20240717013019 89 163 0.0 3.0 0.00 0.00 0.00 72 1010.4
20240717011509 89 273 1.0 3.0 0.00 0.00 0.00 70 1010.2
20240717010059 90 266 1.0 3.0 0.00 0.00 0.00 69 1009.9
20240717004543 90 194 1.0 7.0 0.00 0.00 0.00 68 1009.7
20240717003032 91 267 1.0 5.0 0.00 0.00 0.00 68 1009.8
20240717001513 91 355 0.0 3.0 0.00 0.00 0.00 68 1010.1
20240717000051 91 178 0.0 4.0 0.00 0.00 0.00 67 1009.9
20240716234538 91 109 1.0 4.0 0.00 0.00 0.00 66 1009.7
20240716233024 91 250 1.0 5.0 0.00 0.00 0.00 66 1009.7
20240716231505 92 5 1.0 4.0 0.00 0.00 0.00 65 1009.8
20240716230054 92 276 1.0 3.0 0.00 0.00 0.00 64 1010.0
20240716224533 92 208 2.0 3.0 0.00 0.00 0.00 64 1010.0
20240716223023 92 196 0.0 3.0 0.00 0.00 0.00 65 1010.1